createdAt,value
2017-11-18T00:01:53.202Z,42.42
2017-11-18T00:04:22.261Z,33.80
2017-11-18T00:06:55.184Z,40.85
2017-11-18T00:09:24.223Z,33.13
2017-11-18T00:11:53.287Z,30.63
2017-11-18T00:14:22.320Z,42.97
2017-11-18T00:16:52.288Z,35.57
2017-11-18T00:19:21.400Z,41.78
2017-11-18T00:21:50.456Z,32.43
2017-11-18T00:24:19.499Z,40.97
2017-11-18T00:26:48.544Z,33.40
2017-11-18T00:29:17.601Z,33.03
2017-11-18T00:31:46.644Z,41.63
2017-11-18T00:34:15.695Z,33.90
2017-11-18T00:36:44.740Z,42.55
2017-11-18T00:39:13.783Z,32.13
2017-11-18T00:41:42.824Z,32.00
2017-11-18T00:44:16.991Z,37.47
2017-11-18T00:49:21.277Z,40.65
2017-11-18T00:51:52.280Z,44.65
2017-11-18T00:54:21.340Z,34.50
2017-11-18T00:56:56.061Z,42.40
2017-11-18T00:59:25.509Z,30.07
2017-11-18T01:01:54.540Z,39.45
2017-11-18T01:04:23.593Z,40.38
2017-11-18T01:06:52.628Z,34.23
2017-11-18T01:09:21.684Z,42.05
2017-11-18T01:11:50.732Z,33.33
2017-11-18T01:14:19.767Z,40.80
2017-11-18T01:16:48.819Z,32.00
2017-11-18T01:19:17.894Z,40.42
2017-11-18T01:21:50.217Z,28.93
2017-11-18T01:24:19.233Z,39.05
2017-11-18T01:26:48.280Z,29.97
2017-11-18T01:29:17.334Z,37.45
2017-11-18T01:31:46.381Z,28.60
2017-11-18T01:34:19.051Z,37.83
2017-11-18T01:36:48.093Z,31.53
2017-11-18T01:39:17.159Z,41.03
2017-11-18T01:41:46.199Z,34.13
2017-11-18T01:44:18.347Z,42.72
2017-11-18T01:46:47.429Z,36.57
2017-11-18T01:49:18.364Z,43.83
2017-11-18T01:51:47.408Z,36.90
2017-11-18T01:54:16.448Z,45.20
2017-11-18T01:56:45.496Z,33.03
2017-11-18T01:59:14.543Z,42.45
2017-11-18T02:04:18.816Z,37.53
2017-11-18T02:06:47.867Z,41.30
2017-11-18T02:09:16.942Z,42.03
2017-11-18T02:11:45.977Z,39.95
2017-11-18T02:14:15.027Z,30.30
2017-11-18T02:16:46.083Z,27.57
2017-11-18T02:19:15.172Z,38.00
2017-11-18T02:21:53.559Z,33.80
2017-11-18T02:24:28.021Z,45.15
2017-11-18T02:26:57.068Z,44.35
2017-11-18T02:29:26.142Z,31.03
2017-11-18T02:31:55.182Z,45.38
2017-11-18T02:34:24.232Z,46.55
2017-11-18T02:36:53.284Z,35.97
2017-11-18T02:39:22.320Z,43.53
2017-11-18T02:41:51.462Z,36.27
2017-11-18T02:44:20.540Z,46.58
2017-11-18T02:46:49.632Z,33.90
2017-11-18T02:49:18.704Z,41.67
2017-11-18T02:51:48.767Z,42.22
2017-11-18T02:54:17.881Z,31.77
2017-11-18T02:59:28.101Z,42.15
2017-11-18T03:02:06.145Z,42.50
2017-11-18T03:04:38.977Z,34.50
2017-11-18T03:07:11.812Z,44.60
2017-11-18T03:09:40.899Z,35.00
2017-11-18T03:12:09.912Z,35.47
2017-11-18T03:14:38.952Z,46.88
2017-11-18T03:17:07.989Z,37.37
2017-11-18T03:19:37.023Z,47.28
2017-11-18T03:22:09.700Z,36.10
2017-11-18T03:24:43.719Z,47.23
2017-11-18T03:27:12.746Z,38.50
2017-11-18T03:29:42.824Z,37.13
2017-11-18T03:32:11.861Z,46.10
2017-11-18T03:34:41.948Z,38.27
2017-11-18T03:37:11.003Z,46.70
2017-11-18T03:39:40.051Z,36.80
2017-11-18T03:44:46.269Z,46.97
2017-11-18T03:47:15.331Z,46.33
2017-11-18T03:49:45.344Z,36.13
2017-11-18T03:52:14.394Z,33.93
2017-11-18T03:54:44.356Z,33.37
2017-11-18T03:57:13.396Z,45.75
2017-11-18T03:59:46.264Z,35.73
2017-11-18T04:02:15.391Z,46.60
2017-11-18T04:04:44.441Z,37.17
2017-11-18T04:07:13.493Z,46.25
2017-11-18T04:09:47.355Z,46.78
2017-11-18T04:12:16.537Z,36.53
2017-11-18T04:14:45.568Z,43.90
2017-11-18T04:17:14.608Z,34.80
2017-11-18T04:19:44.623Z,44.10
2017-11-18T04:22:13.664Z,35.73
2017-11-18T04:27:24.007Z,41.60
2017-11-18T04:29:54.166Z,32.80
2017-11-18T04:32:23.249Z,40.40
2017-11-18T04:34:52.284Z,32.70
2017-11-18T04:37:21.327Z,38.30
2017-11-18T04:39:54.043Z,38.45
2017-11-18T04:42:23.115Z,40.60
2017-11-18T04:44:54.097Z,40.10
2017-11-18T04:47:23.152Z,29.00
2017-11-18T04:49:52.191Z,28.20
2017-11-18T04:52:25.076Z,39.40
2017-11-18T04:54:54.105Z,32.83
2017-11-18T04:57:23.147Z,38.65
2017-11-18T04:59:52.190Z,29.33
2017-11-18T05:02:21.238Z,38.33
2017-11-18T05:04:51.295Z,31.80
2017-11-18T05:07:20.331Z,38.38
2017-11-18T05:09:49.398Z,30.67
2017-11-18T05:12:18.453Z,39.95
2017-11-18T05:14:48.412Z,33.67
2017-11-18T05:17:17.461Z,41.92
2017-11-18T05:19:47.548Z,33.53
2017-11-18T05:22:20.603Z,44.97
2017-11-18T05:24:49.629Z,36.43
2017-11-18T05:27:18.668Z,44.33
2017-11-18T05:29:47.712Z,33.43
2017-11-18T05:32:16.772Z,45.45
2017-11-18T05:34:45.835Z,37.20
2017-11-18T05:37:14.860Z,49.33
2017-11-18T05:39:43.913Z,38.90
2017-11-18T05:44:48.199Z,55.55
2017-11-18T05:47:17.243Z,42.70
2017-11-18T05:49:47.311Z,40.33
2017-11-18T05:52:16.367Z,53.55
2017-11-18T05:54:47.412Z,43.73
2017-11-18T05:57:16.459Z,41.20
2017-11-18T05:59:46.423Z,39.10
2017-11-18T06:02:15.481Z,59.30
2017-11-18T06:04:44.569Z,39.00
2017-11-18T06:07:13.639Z,55.67
2017-11-18T06:09:42.683Z,63.92
2017-11-18T06:12:11.730Z,46.27
2017-11-18T06:14:40.772Z,40.57
2017-11-18T06:17:09.832Z,53.00
2017-11-18T06:19:38.893Z,42.20
2017-11-18T06:22:07.933Z,63.87
2017-11-18T06:24:37.025Z,66.82
2017-11-18T06:27:07.037Z,48.00
2017-11-18T06:29:36.098Z,38.23
2017-11-18T06:32:05.141Z,35.67
2017-11-18T06:37:09.401Z,62.45
2017-11-18T06:39:39.416Z,43.13
2017-11-18T06:42:09.526Z,37.57
2017-11-18T06:44:38.574Z,50.45
2017-11-18T06:47:07.628Z,40.30
2017-11-18T06:52:11.897Z,52.70
2017-11-18T06:54:40.949Z,36.43
2017-11-18T06:57:10.025Z,33.67
2017-11-18T06:59:42.569Z,48.05
2017-11-18T07:02:12.527Z,38.50
2017-11-18T07:07:17.800Z,44.22
2017-11-18T07:12:22.095Z,41.15
2017-11-18T07:17:30.543Z,35.45
2017-11-18T07:19:59.579Z,36.17
2017-11-18T07:22:28.658Z,34.78
2017-11-18T07:24:57.706Z,29.42
2017-11-18T07:27:26.761Z,30.53
2017-11-18T07:29:55.796Z,24.07
2017-11-18T07:32:24.852Z,30.60
2017-11-18T07:37:29.131Z,25.37
2017-11-18T07:39:58.205Z,19.20
2017-11-18T07:42:27.246Z,18.90
2017-11-18T07:45:08.822Z,15.43
2017-11-18T07:47:52.579Z,22.45
2017-11-18T07:50:21.675Z,18.63
2017-11-18T07:52:56.359Z,20.65
2017-11-18T07:55:25.404Z,17.93
2017-11-18T07:57:54.747Z,17.53
2017-11-18T08:00:23.794Z,20.98
2017-11-18T08:02:52.835Z,15.20
2017-11-18T08:07:57.148Z,18.00
2017-11-18T08:10:27.093Z,15.70
2017-11-18T08:12:56.154Z,14.90
2017-11-18T08:15:25.196Z,20.70
2017-11-18T08:17:54.260Z,17.23
2017-11-18T08:20:23.285Z,14.50
2017-11-18T08:22:52.337Z,18.23
2017-11-18T08:25:21.394Z,13.90
2017-11-18T08:27:50.436Z,13.10
2017-11-18T08:30:19.701Z,14.17
2017-11-18T08:32:48.747Z,16.08
2017-11-18T08:35:17.810Z,13.73
2017-11-18T08:37:50.084Z,13.80
2017-11-18T08:40:19.473Z,12.33
2017-11-18T08:42:49.166Z,12.40
2017-11-18T08:45:18.216Z,13.40
2017-11-18T08:47:47.253Z,16.23
2017-11-18T08:50:16.293Z,11.93
2017-11-18T08:52:45.340Z,15.20
2017-11-18T08:55:14.399Z,13.07
2017-11-18T08:57:43.915Z,12.13
2017-11-18T09:00:13.073Z,11.53
2017-11-18T09:02:43.317Z,12.60
2017-11-18T09:05:12.434Z,11.47
2017-11-18T09:07:41.498Z,10.30
2017-11-18T09:10:11.499Z,11.20
2017-11-18T09:12:41.888Z,11.27
2017-11-18T09:15:12.038Z,12.73
2017-11-18T09:17:43.547Z,11.17
2017-11-18T09:20:17.114Z,12.23
2017-11-18T09:22:49.752Z,11.77
2017-11-18T09:25:18.817Z,11.30
2017-11-18T09:27:48.054Z,11.90
2017-11-18T09:30:19.084Z,12.23
2017-11-18T09:32:48.131Z,11.70
2017-11-18T09:35:17.502Z,15.88
2017-11-18T09:37:46.563Z,13.13
2017-11-18T09:40:15.659Z,11.90
2017-11-18T09:42:46.437Z,11.73
2017-11-18T09:45:15.548Z,15.70
2017-11-18T09:47:44.860Z,14.98
2017-11-18T09:50:18.686Z,12.13
2017-11-18T09:52:48.770Z,13.68
2017-11-18T09:55:17.881Z,13.83
2017-11-18T09:57:46.914Z,11.47
2017-11-18T10:00:15.965Z,10.83
2017-11-18T10:02:47.008Z,15.38
2017-11-18T10:05:16.140Z,12.03
2017-11-18T10:12:56.333Z,16.15
2017-11-18T10:15:25.409Z,16.50
2017-11-18T10:17:54.444Z,11.23
2017-11-18T10:20:25.436Z,11.57
2017-11-18T10:22:54.480Z,12.37
2017-11-18T10:25:25.490Z,11.13
2017-11-18T10:27:54.547Z,11.30
2017-11-18T10:32:58.861Z,16.85
2017-11-18T10:35:27.909Z,11.70
2017-11-18T10:37:56.953Z,11.73
2017-11-18T10:45:38.528Z,14.25
2017-11-18T10:48:07.574Z,13.30
2017-11-18T10:53:11.818Z,13.20
2017-11-18T10:55:40.876Z,13.62
2017-11-18T10:58:09.943Z,10.87
2017-11-18T11:00:38.976Z,10.60
2017-11-18T11:03:08.012Z,12.00
2017-11-18T11:05:37.073Z,10.53
2017-11-18T11:08:06.114Z,10.43
2017-11-18T11:10:35.161Z,12.73
2017-11-18T11:13:05.208Z,11.98
2017-11-18T11:15:34.234Z,10.43
2017-11-18T11:18:07.386Z,9.97
2017-11-18T11:20:36.432Z,10.13
2017-11-18T11:23:06.501Z,10.40
2017-11-18T11:25:38.849Z,10.93
2017-11-18T11:28:12.567Z,10.40
2017-11-18T11:30:42.160Z,9.63
2017-11-18T11:33:15.267Z,9.83
2017-11-18T11:38:20.567Z,11.45
2017-11-18T11:40:53.598Z,9.70
2017-11-18T11:43:22.649Z,10.00
2017-11-18T11:45:54.995Z,11.52
2017-11-18T11:48:24.043Z,8.80
2017-11-18T11:50:54.994Z,8.23
2017-11-18T11:53:24.017Z,8.70
2017-11-18T11:58:30.278Z,10.40
2017-11-18T12:00:59.324Z,11.00
2017-11-18T12:03:29.689Z,9.50
2017-11-18T12:06:00.219Z,8.40
2017-11-18T12:08:29.277Z,9.10
2017-11-18T12:10:58.314Z,9.23
2017-11-18T12:13:27.757Z,8.73
2017-11-18T12:15:56.848Z,7.17
2017-11-18T12:18:25.867Z,8.80
2017-11-18T12:21:13.057Z,8.13
2017-11-18T12:23:43.059Z,8.03
2017-11-18T12:26:12.104Z,9.40
2017-11-18T12:28:41.147Z,8.50
2017-11-18T12:33:45.463Z,11.15
2017-11-18T12:36:36.335Z,9.50
2017-11-18T12:39:05.385Z,10.43
2017-11-18T12:41:34.438Z,11.50
2017-11-18T12:44:03.484Z,9.97
2017-11-18T12:46:32.655Z,10.97
2017-11-18T12:49:01.689Z,10.40
2017-11-18T12:51:35.555Z,9.30
2017-11-18T12:54:08.436Z,9.07
2017-11-18T12:56:45.255Z,10.73
2017-11-18T12:59:22.078Z,9.33
2017-11-18T13:01:52.185Z,10.07
2017-11-18T13:09:39.628Z,13.07
2017-11-18T13:16:05.421Z,14.30
2017-11-18T13:18:34.531Z,11.60
2017-11-18T13:21:03.583Z,11.17
2017-11-18T13:23:32.628Z,11.30
2017-11-18T13:26:22.533Z,11.10
2017-11-18T13:28:51.566Z,10.97
2017-11-18T13:33:55.876Z,14.82
2017-11-18T13:36:24.912Z,15.38
2017-11-18T13:41:29.265Z,14.80
2017-11-18T13:43:58.293Z,12.87
2017-11-18T13:46:27.386Z,11.00
2017-11-18T13:48:57.302Z,10.63
2017-11-18T13:51:30.909Z,10.67
2017-11-18T13:54:03.703Z,11.53
2017-11-18T13:56:33.660Z,13.77
2017-11-18T13:59:03.770Z,11.30
2017-11-18T14:01:32.816Z,10.50
2017-11-18T14:04:01.844Z,12.80
2017-11-18T14:06:30.894Z,11.50
2017-11-18T14:08:59.933Z,13.25
2017-11-18T14:11:28.979Z,10.30
2017-11-18T14:13:58.969Z,10.13
2017-11-18T14:16:28.027Z,9.43
2017-11-18T14:21:32.348Z,13.52
2017-11-18T14:26:36.615Z,12.57
2017-11-18T14:29:05.692Z,12.88
2017-11-18T14:34:10.005Z,14.15
2017-11-18T14:36:39.090Z,10.60
2017-11-18T14:39:08.152Z,11.20
2017-11-18T14:41:46.179Z,9.77
2017-11-18T14:44:18.561Z,12.18
2017-11-18T14:46:48.498Z,9.63
2017-11-18T14:49:17.600Z,12.30
2017-11-18T14:51:48.561Z,11.90
2017-11-18T14:54:39.998Z,11.20
2017-11-18T14:57:09.080Z,11.70
2017-11-18T14:59:38.124Z,10.97
2017-11-18T15:02:07.333Z,15.52
2017-11-18T15:04:41.016Z,16.40
2017-11-18T15:15:08.082Z,12.70
2017-11-18T15:17:42.649Z,9.40
2017-11-18T15:20:21.011Z,8.73
2017-11-18T15:22:55.584Z,8.67
2017-11-18T15:25:32.077Z,7.70
2017-11-18T15:28:04.832Z,7.70
2017-11-18T15:30:40.380Z,7.97
2017-11-18T15:33:18.418Z,7.90
2017-11-18T15:35:53.280Z,8.13
2017-11-18T15:40:57.485Z,10.50
2017-11-18T15:43:39.537Z,8.93
2017-11-18T15:48:49.896Z,17.67
2017-11-18T15:51:20.367Z,8.90
2017-11-18T15:53:56.804Z,11.52
2017-11-18T15:59:01.635Z,9.82
2017-11-18T16:04:35.775Z,10.55
2017-11-18T16:07:05.076Z,10.60
2017-11-18T16:12:12.781Z,9.85
2017-11-18T16:14:41.813Z,10.70
2017-11-18T16:19:33.562Z,9.20
2017-11-18T16:22:02.609Z,8.30
2017-11-18T16:24:31.724Z,8.00
2017-11-18T16:27:00.754Z,7.77
2017-11-18T16:29:29.809Z,10.77
2017-11-18T16:31:58.856Z,8.70
2017-11-18T16:37:03.128Z,13.60
2017-11-18T16:39:33.097Z,9.90
2017-11-18T16:42:02.172Z,20.00
2017-11-18T16:44:40.289Z,15.00
2017-11-18T16:47:11.239Z,12.53
2017-11-18T16:49:40.397Z,21.98
2017-11-18T16:52:10.704Z,21.12
2017-11-18T16:57:20.039Z,14.30
2017-11-18T16:59:50.869Z,10.67
2017-11-18T17:02:21.932Z,12.90
2017-11-18T17:04:50.990Z,12.77
2017-11-18T17:07:20.020Z,9.00
2017-11-18T17:09:49.077Z,10.77
2017-11-18T17:12:20.199Z,9.77
2017-11-18T17:14:49.238Z,13.53
2017-11-18T17:17:18.306Z,10.87
2017-11-18T17:19:48.245Z,13.25
2017-11-18T17:22:17.321Z,11.97
2017-11-18T17:24:49.308Z,10.10
2017-11-18T17:29:53.546Z,13.50
2017-11-18T17:32:22.602Z,13.25
2017-11-18T17:34:51.646Z,12.77
2017-11-18T17:39:55.879Z,13.35
2017-11-18T17:42:24.987Z,11.60
2017-11-18T17:44:54.050Z,12.20
2017-11-18T17:47:24.086Z,11.40
2017-11-18T17:49:53.125Z,11.83
2017-11-18T17:52:22.171Z,11.53
2017-11-18T17:54:51.221Z,14.40
2017-11-18T17:57:20.255Z,13.40
2017-11-18T17:59:49.292Z,11.93
2017-11-18T18:02:18.373Z,11.80
2017-11-18T18:04:48.342Z,11.83
2017-11-18T18:09:52.646Z,14.73
2017-11-18T18:12:23.717Z,12.83
2017-11-18T18:14:52.780Z,11.30
2017-11-18T18:17:25.138Z,14.18
2017-11-18T18:19:54.175Z,10.90
2017-11-18T18:22:24.231Z,11.80
2017-11-18T18:24:53.284Z,13.77
2017-11-18T18:27:23.263Z,10.07
2017-11-18T18:29:52.337Z,8.70
2017-11-18T18:34:57.143Z,10.20
2017-11-18T18:37:29.689Z,11.02
2017-11-18T18:39:59.742Z,8.70
2017-11-18T18:42:28.781Z,7.90
2017-11-18T18:44:57.858Z,8.20
2017-11-18T18:47:28.797Z,8.90
2017-11-18T18:49:57.868Z,7.70
2017-11-18T18:52:27.083Z,8.47
2017-11-18T18:54:56.152Z,9.23
2017-11-18T18:57:26.338Z,8.90
2017-11-18T18:59:55.425Z,15.40
2017-11-18T19:02:26.468Z,15.68
2017-11-18T19:04:56.581Z,9.90
2017-11-18T19:07:26.710Z,16.05
2017-11-18T19:09:55.815Z,20.47
2017-11-18T19:12:33.388Z,15.40
2017-11-18T19:15:03.364Z,15.30
2017-11-18T19:17:33.210Z,17.95
2017-11-18T19:20:02.370Z,17.57
2017-11-18T19:22:31.574Z,21.52
2017-11-18T19:25:05.642Z,23.13
2017-11-18T19:30:11.579Z,24.95
2017-11-18T19:32:45.294Z,24.63
2017-11-18T19:35:17.625Z,33.77
2017-11-18T19:37:46.999Z,9.00
2017-11-18T19:40:16.124Z,11.73
2017-11-18T19:42:45.724Z,9.30
2017-11-18T19:45:15.169Z,8.50
2017-11-18T19:47:46.214Z,12.00
2017-11-18T19:52:54.169Z,12.90
2017-11-18T19:55:25.391Z,11.27
2017-11-18T19:57:55.100Z,13.18
2017-11-18T20:00:28.392Z,13.57
2017-11-18T20:02:57.554Z,10.53
2017-11-18T20:05:28.559Z,11.23
2017-11-18T20:08:02.340Z,11.10
2017-11-18T20:13:06.872Z,15.65
2017-11-18T20:15:38.290Z,13.37
2017-11-18T20:18:09.755Z,13.47
2017-11-18T20:20:46.061Z,17.10
2017-11-18T20:23:21.267Z,15.07
2017-11-18T20:25:52.548Z,14.60
2017-11-18T20:28:34.650Z,17.20
2017-11-18T20:31:05.894Z,14.73
2017-11-18T20:33:36.529Z,15.50
2017-11-18T20:36:07.938Z,13.37
2017-11-18T20:38:38.830Z,15.82
2017-11-18T20:41:09.047Z,13.17
2017-11-18T20:43:41.441Z,15.50
2017-11-18T20:48:48.960Z,16.27
2017-11-18T20:51:18.126Z,13.20
2017-11-18T20:53:47.222Z,14.82
2017-11-18T20:56:16.296Z,13.97
2017-11-18T20:58:45.903Z,12.20
2017-11-18T21:01:14.979Z,14.75
2017-11-18T21:03:44.141Z,13.43
2017-11-18T21:06:13.327Z,15.65
2017-11-18T21:08:42.378Z,13.83
2017-11-18T21:11:18.781Z,14.70
2017-11-18T21:13:47.819Z,11.90
2017-11-18T21:16:20.906Z,12.40
2017-11-18T21:18:49.963Z,12.73
2017-11-18T21:21:20.032Z,10.90
2017-11-18T21:23:49.095Z,12.95
2017-11-18T21:26:18.227Z,10.60
2017-11-18T21:28:47.260Z,11.37
2017-11-18T21:31:16.610Z,13.27
2017-11-18T21:33:45.678Z,13.33
2017-11-18T21:36:15.315Z,11.63
2017-11-18T21:41:19.636Z,12.80
2017-11-18T21:43:49.612Z,11.23
2017-11-18T21:46:18.694Z,10.30
2017-11-18T21:48:47.740Z,11.60
2017-11-18T21:51:16.916Z,13.30
2017-11-18T21:53:53.886Z,13.40
2017-11-18T21:56:23.264Z,11.03
2017-11-18T21:58:52.306Z,10.27
2017-11-18T22:01:21.678Z,13.05
2017-11-18T22:06:27.415Z,12.70
2017-11-18T22:08:58.380Z,11.37
2017-11-18T22:11:27.425Z,10.67
2017-11-18T22:16:31.696Z,12.40
2017-11-18T22:21:39.942Z,12.20
2017-11-18T22:24:10.912Z,11.68
2017-11-18T22:26:41.954Z,9.30
2017-11-18T22:29:11.001Z,11.10
2017-11-18T22:34:16.182Z,10.23
2017-11-18T22:36:46.127Z,10.00
2017-11-18T22:39:15.154Z,9.83
2017-11-18T22:41:44.223Z,9.93
2017-11-18T22:44:13.264Z,8.83
2017-11-18T22:46:42.327Z,8.13
2017-11-18T22:49:11.333Z,9.23
2017-11-18T22:51:40.388Z,9.70
2017-11-18T22:54:12.915Z,9.33
2017-11-18T22:56:41.963Z,9.55
2017-11-18T22:59:11.035Z,9.33
2017-11-18T23:01:40.166Z,9.60
2017-11-18T23:04:09.192Z,8.43
2017-11-18T23:06:38.243Z,10.32
2017-11-18T23:09:08.212Z,10.63
2017-11-18T23:11:37.304Z,9.10
2017-11-18T23:14:06.350Z,11.10
2017-11-18T23:16:44.470Z,9.67
2017-11-18T23:19:13.511Z,10.00
2017-11-18T23:24:17.912Z,9.95
2017-11-18T23:26:47.895Z,8.93
2017-11-18T23:29:16.931Z,9.70
2017-11-18T23:34:29.251Z,10.32
2017-11-18T23:36:59.249Z,11.23
2017-11-18T23:39:29.235Z,8.57
2017-11-18T23:42:02.920Z,10.80
2017-11-18T23:44:32.006Z,8.47
2017-11-18T23:47:01.170Z,9.70
2017-11-18T23:49:30.256Z,10.67
2017-11-18T23:52:00.442Z,10.35
2017-11-18T23:54:29.597Z,9.40
